Time;durP1;ratioP1;P1;durP2;ratioP2;P2;SDS_P1;SDS_P2;PMS_P1;PMS_P2;Temp;Humidity;BMP_temperature;BMP_pressure;BME280_temperature;BME280_humidity;BME280_pressure;Samples;Min_cycle;Max_cycle;Signal;HPM_P1;HPM_P2
2024/02/01 00:01:38;;;;;;;6.85;3.28;;;;;;;;;;5073152;28;20439;-76
2024/02/01 00:04:03;;;;;;;6.07;3.63;;;;;;;;;;5086114;28;20028;-76
2024/02/01 00:06:28;;;;;;;6.50;3.70;;;;;;;;;;5072228;28;20124;-76
2024/02/01 00:08:54;;;;;;;5.50;3.42;;;;;;;;;;5070837;28;20028;-76
2024/02/01 00:11:19;;;;;;;8.02;3.22;;;;;;;;;;5071645;28;20032;-76
2024/02/01 00:13:44;;;;;;;6.00;3.65;;;;;;;;;;5075914;28;20032;-76
2024/02/01 00:16:09;;;;;;;7.10;3.80;;;;;;;;;;5072088;28;20107;-76
2024/02/01 00:18:34;;;;;;;7.15;4.00;;;;;;;;;;5071885;28;20036;-76
2024/02/01 00:20:59;;;;;;;6.30;3.50;;;;;;;;;;5071593;28;20392;-76
2024/02/01 00:23:25;;;;;;;6.05;3.45;;;;;;;;;;5076923;28;20024;-76
2024/02/01 00:25:50;;;;;;;6.68;3.85;;;;;;;;;;5073966;28;20146;-76
2024/02/01 00:28:15;;;;;;;5.97;3.40;;;;;;;;;;5077243;28;20404;-76
2024/02/01 00:30:41;;;;;;;8.25;3.92;;;;;;;;;;5079266;28;20107;-76
2024/02/01 00:33:06;;;;;;;5.75;2.97;;;;;;;;;;5082801;28;20073;-76
2024/02/01 00:35:31;;;;;;;5.97;3.72;;;;;;;;;;5073481;28;20439;-76
2024/02/01 00:37:57;;;;;;;5.00;2.97;;;;;;;;;;5071617;28;20028;-76
2024/02/01 00:40:22;;;;;;;5.05;3.20;;;;;;;;;;5069646;28;20678;-76
2024/02/01 00:42:47;;;;;;;6.43;3.70;;;;;;;;;;5072620;28;20036;-76
2024/02/01 00:45:12;;;;;;;6.05;3.58;;;;;;;;;;5076897;28;20043;-76
2024/02/01 00:47:37;;;;;;;6.78;3.75;;;;;;;;;;5071292;28;20155;-77
2024/02/01 00:50:03;;;;;;;8.25;3.33;;;;;;;;;;5070924;28;20044;-76
2024/02/01 00:52:28;;;;;;;6.65;3.75;;;;;;;;;;5069190;28;20085;-76
2024/02/01 00:54:53;;;;;;;7.07;3.03;;;;;;;;;;5075325;28;20031;-76
2024/02/01 00:57:18;;;;;;;7.57;3.53;;;;;;;;;;5071113;28;20064;-76
2024/02/01 00:59:43;;;;;;;6.55;3.70;;;;;;;;;;5070753;28;20024;-76
2024/02/01 01:02:09;;;;;;;6.65;3.08;;;;;;;;;;5073553;28;20157;-76
2024/02/01 01:04:34;;;;;;;7.45;3.63;;;;;;;;;;5075888;28;20028;-76
2024/02/01 01:06:59;;;;;;;6.80;3.65;;;;;;;;;;5071023;28;20036;-76
2024/02/01 01:09:24;;;;;;;7.03;3.28;;;;;;;;;;5070501;28;20131;-76
2024/02/01 01:11:49;;;;;;;6.60;3.58;;;;;;;;;;5076585;28;20078;-76
2024/02/01 01:14:15;;;;;;;6.80;3.30;;;;;;;;;;5078310;28;20101;-76
2024/02/01 01:16:40;;;;;;;8.25;3.28;;;;;;;;;;5076648;28;20439;-76
2024/02/01 01:19:05;;;;;;;5.07;3.03;;;;;;;;;;5073777;28;20024;-76
2024/02/01 01:21:30;;;;;;;6.70;3.83;;;;;;;;;;5072930;28;20035;-76
2024/02/01 01:23:55;;;;;;;5.45;3.30;;;;;;;;;;5081984;28;20040;-76
2024/02/01 01:26:21;;;;;;;6.47;3.15;;;;;;;;;;5070582;28;20044;-76
2024/02/01 01:28:46;;;;;;;7.50;3.88;;;;;;;;;;5070437;28;20484;-76
2024/02/01 01:31:11;;;;;;;5.60;2.63;;;;;;;;;;5069965;28;20047;-76
2024/02/01 01:33:36;;;;;;;6.93;3.00;;;;;;;;;;5074396;28;20507;-76
2024/02/01 01:36:02;;;;;;;6.13;3.20;;;;;;;;;;5070548;28;20029;-76
2024/02/01 01:38:27;;;;;;;5.93;2.95;;;;;;;;;;5069127;28;20754;-76
2024/02/01 01:40:52;;;;;;;6.32;3.53;;;;;;;;;;5069912;28;20024;-76
2024/02/01 01:43:17;;;;;;;8.00;3.83;;;;;;;;;;5075716;28;20385;-76
2024/02/01 01:45:43;;;;;;;9.07;3.30;;;;;;;;;;5070568;28;20032;-76
2024/02/01 01:48:08;;;;;;;6.97;3.45;;;;;;;;;;5070370;28;20107;-76
2024/02/01 01:50:33;;;;;;;5.65;3.35;;;;;;;;;;5069775;28;20495;-76
2024/02/01 01:52:59;;;;;;;6.95;3.08;;;;;;;;;;5072278;28;20094;-76
2024/02/01 01:55:25;;;;;;;6.15;3.53;;;;;;;;;;5074312;28;20780;-76
2024/02/01 01:57:50;;;;;;;7.75;3.00;;;;;;;;;;5069990;28;20069;-76
2024/02/01 02:00:16;;;;;;;9.23;4.10;;;;;;;;;;5069690;28;20043;-76
2024/02/01 02:02:42;;;;;;;6.13;3.05;;;;;;;;;;5070018;28;20021;-76
2024/02/01 02:05:07;;;;;;;5.85;3.22;;;;;;;;;;5076430;28;20404;-76
2024/02/01 02:07:32;;;;;;;6.47;3.17;;;;;;;;;;5070277;28;20033;-75
2024/02/01 02:10:00;;;;;;;7.57;3.45;;;;;;;;;;5073351;28;20028;-76
2024/02/01 02:12:26;;;;;;;8.27;3.55;;;;;;;;;;5069741;28;20040;-76
2024/02/01 02:14:58;;;;;;;7.20;3.42;;;;;;;;;;5074213;28;20081;-76
2024/02/01 02:17:25;;;;;;;5.40;3.17;;;;;;;;;;5072293;28;20032;-76
2024/02/01 02:19:51;;;;;;;5.03;3.22;;;;;;;;;;5073505;28;20400;-76
2024/02/01 02:22:16;;;;;;;8.65;3.40;;;;;;;;;;5078636;28;20036;-76
2024/02/01 02:24:41;;;;;;;7.90;3.85;;;;;;;;;;5080721;28;20099;-75
2024/02/01 02:27:06;;;;;;;6.93;3.00;;;;;;;;;;5071298;28;20546;-76
2024/02/01 02:29:31;;;;;;;5.38;3.03;;;;;;;;;;5069463;28;20029;-76
2024/02/01 02:31:56;;;;;;;6.57;3.00;;;;;;;;;;5069920;28;20530;-76
2024/02/01 02:34:22;;;;;;;5.75;2.72;;;;;;;;;;5075598;28;20047;-76
2024/02/01 02:36:47;;;;;;;6.85;3.15;;;;;;;;;;5069923;28;20093;-77
2024/02/01 02:39:14;;;;;;;4.97;2.80;;;;;;;;;;5069434;28;20029;-76
2024/02/01 02:41:39;;;;;;;5.65;2.80;;;;;;;;;;5069403;28;20050;-76
2024/02/01 02:44:08;;;;;;;7.28;3.45;;;;;;;;;;5075399;28;20028;-76
2024/02/01 02:46:34;;;;;;;6.00;3.13;;;;;;;;;;5069561;28;20035;-76
2024/02/01 02:48:59;;;;;;;9.30;3.22;;;;;;;;;;5070025;28;20024;-76
2024/02/01 02:51:24;;;;;;;8.40;3.20;;;;;;;;;;5069358;28;20117;-76
2024/02/01 02:53:49;;;;;;;5.63;3.15;;;;;;;;;;5073365;28;20035;-76
2024/02/01 02:56:14;;;;;;;5.00;2.80;;;;;;;;;;5069679;28;20031;-76
2024/02/01 02:58:39;;;;;;;4.40;2.80;;;;;;;;;;5069519;28;20439;-76
2024/02/01 03:01:07;;;;;;;6.07;2.67;;;;;;;;;;5068958;28;20029;-76
2024/02/01 03:03:33;;;;;;;5.05;2.65;;;;;;;;;;5074716;28;20507;-76
2024/02/01 03:05:58;;;;;;;6.13;2.83;;;;;;;;;;5069492;28;20056;-76
2024/02/01 03:08:23;;;;;;;5.10;2.60;;;;;;;;;;5069579;28;20052;-76
2024/02/01 03:10:50;;;;;;;5.13;2.70;;;;;;;;;;5068757;28;20040;-76
2024/02/01 03:13:16;;;;;;;7.18;3.70;;;;;;;;;;5081621;28;20657;-76
2024/02/01 03:15:41;;;;;;;6.85;3.25;;;;;;;;;;5074195;28;20112;-76
2024/02/01 03:18:10;;;;;;;7.10;3.30;;;;;;;;;;5073354;28;20074;-76
2024/02/01 03:20:36;;;;;;;7.70;2.95;;;;;;;;;;5072418;28;20032;-76
2024/02/01 03:23:03;;;;;;;9.02;2.90;;;;;;;;;;5075030;28;20393;-76
2024/02/01 03:25:28;;;;;;;6.68;2.65;;;;;;;;;;5077578;28;20075;-76
2024/02/01 03:27:55;;;;;;;11.00;3.67;;;;;;;;;;5072690;28;20469;-76
2024/02/01 03:30:21;;;;;;;6.50;2.80;;;;;;;;;;5072391;28;20389;-76
2024/02/01 03:32:46;;;;;;;4.65;2.65;;;;;;;;;;5072019;28;20108;-76
2024/02/01 03:35:16;;;;;;;6.03;2.55;;;;;;;;;;5076891;28;20048;-76
2024/02/01 03:37:41;;;;;;;9.57;3.20;;;;;;;;;;5071335;28;20066;-76
2024/02/01 03:40:07;;;;;;;5.72;3.00;;;;;;;;;;5071933;28;20658;-76
2024/02/01 03:42:32;;;;;;;6.53;2.90;;;;;;;;;;5072015;28;20131;-76
2024/02/01 03:44:57;;;;;;;6.25;2.92;;;;;;;;;;5077421;28;20055;-76
2024/02/01 03:47:23;;;;;;;5.75;2.90;;;;;;;;;;5072586;28;20051;-76
2024/02/01 03:49:48;;;;;;;5.90;3.08;;;;;;;;;;5072043;28;20058;-76
2024/02/01 03:52:20;;;;;;;6.60;3.08;;;;;;;;;;5072307;28;20032;-76
2024/02/01 03:54:45;;;;;;;5.60;2.83;;;;;;;;;;5075932;28;20032;-76
2024/02/01 03:57:14;;;;;;;6.75;3.00;;;;;;;;;;5072459;28;20036;-76
2024/02/01 03:59:41;;;;;;;6.03;2.85;;;;;;;;;;5071511;28;20120;-76
2024/02/01 04:02:13;;;;;;;5.82;3.05;;;;;;;;;;5072466;28;20043;-76
2024/02/01 04:04:42;;;;;;;9.45;3.28;;;;;;;;;;5075496;28;20055;-76
2024/02/01 04:07:09;;;;;;;6.40;2.90;;;;;;;;;;5076053;28;20075;-75
2024/02/01 04:09:34;;;;;;;5.57;3.30;;;;;;;;;;5072031;28;20039;-74
2024/02/01 04:11:59;;;;;;;7.72;3.83;;;;;;;;;;5080037;28;20036;-75
2024/02/01 04:14:25;;;;;;;5.95;3.38;;;;;;;;;;5075975;28;20135;-75
2024/02/01 04:16:50;;;;;;;7.07;4.05;;;;;;;;;;5071205;28;20032;-75
2024/02/01 04:19:15;;;;;;;7.00;3.40;;;;;;;;;;5073825;28;20028;-74
2024/02/01 04:21:44;;;;;;;8.30;3.47;;;;;;;;;;5071694;28;20113;-74
2024/02/01 04:24:09;;;;;;;8.10;3.33;;;;;;;;;;5079507;28;20496;-74
2024/02/01 04:26:35;;;;;;;6.68;3.50;;;;;;;;;;5070841;28;20033;-74
2024/02/01 04:29:00;;;;;;;7.38;5.22;;;;;;;;;;5078708;28;20039;-74
2024/02/01 04:31:26;;;;;;;6.88;3.70;;;;;;;;;;5070837;28;20025;-74
2024/02/01 04:33:55;;;;;;;6.80;3.55;;;;;;;;;;5076181;28;20533;-74
2024/02/01 04:36:20;;;;;;;9.20;4.10;;;;;;;;;;5074776;28;20044;-74
2024/02/01 04:38:49;;;;;;;7.78;3.88;;;;;;;;;;5072092;28;20029;-74
2024/02/01 04:41:14;;;;;;;12.20;4.90;;;;;;;;;;5071125;28;20036;-75
2024/02/01 04:43:40;;;;;;;8.70;4.30;;;;;;;;;;5080876;28;20103;-74
2024/02/01 04:46:05;;;;;;;7.25;4.70;;;;;;;;;;5073233;28;20468;-74
2024/02/01 04:48:30;;;;;;;8.25;4.63;;;;;;;;;;5071331;28;20036;-75
2024/02/01 04:50:56;;;;;;;6.55;3.90;;;;;;;;;;5070752;28;20024;-75
2024/02/01 04:53:21;;;;;;;7.82;4.63;;;;;;;;;;5073237;28;20397;-75
2024/02/01 04:55:50;;;;;;;8.25;4.35;;;;;;;;;;5073071;28;20039;-76
2024/02/01 04:58:16;;;;;;;7.55;4.43;;;;;;;;;;5071221;28;20028;-75
2024/02/01 05:00:41;;;;;;;7.47;3.88;;;;;;;;;;5071101;28;20065;-75
2024/02/01 05:03:06;;;;;;;10.18;4.55;;;;;;;;;;5071370;28;20036;-76
2024/02/01 05:05:31;;;;;;;7.90;4.53;;;;;;;;;;5077100;28;20099;-76
2024/02/01 05:07:56;;;;;;;9.55;4.07;;;;;;;;;;5075350;28;20485;-76
2024/02/01 05:10:21;;;;;;;9.07;4.38;;;;;;;;;;5070711;28;20023;-76
2024/02/01 05:12:47;;;;;;;7.55;4.88;;;;;;;;;;5076229;28;20425;-76
2024/02/01 05:15:12;;;;;;;11.32;4.65;;;;;;;;;;5080950;28;20473;-76
2024/02/01 05:17:39;;;;;;;9.70;4.60;;;;;;;;;;5073830;28;20024;-76
2024/02/01 05:20:08;;;;;;;7.90;4.53;;;;;;;;;;5070670;28;20035;-76
2024/02/01 05:22:34;;;;;;;8.90;4.38;;;;;;;;;;5074834;28;20035;-76
2024/02/01 05:24:59;;;;;;;9.50;4.78;;;;;;;;;;5074097;28;20420;-76
2024/02/01 05:27:24;;;;;;;6.30;4.03;;;;;;;;;;5070431;28;20035;-76
2024/02/01 05:29:50;;;;;;;7.22;3.72;;;;;;;;;;5076139;28;20066;-76
2024/02/01 05:32:15;;;;;;;9.25;3.90;;;;;;;;;;5071971;28;20060;-76
2024/02/01 05:34:40;;;;;;;7.32;4.00;;;;;;;;;;5074006;28;20036;-76
2024/02/01 05:37:06;;;;;;;6.75;3.80;;;;;;;;;;5070831;28;20032;-76
2024/02/01 05:39:32;;;;;;;5.97;3.83;;;;;;;;;;5069833;28;20033;-75
2024/02/01 05:41:58;;;;;;;6.35;3.97;;;;;;;;;;5070105;28;20044;-76
2024/02/01 05:44:24;;;;;;;7.57;4.05;;;;;;;;;;5075497;28;20033;-76
2024/02/01 05:46:53;;;;;;;7.57;3.83;;;;;;;;;;5077379;28;20029;-76
2024/02/01 05:49:18;;;;;;;7.50;3.80;;;;;;;;;;5077465;28;20016;-76
2024/02/01 05:51:47;;;;;;;6.82;3.50;;;;;;;;;;5077199;28;20512;-76
2024/02/01 05:54:13;;;;;;;5.35;3.10;;;;;;;;;;5074348;28;20032;-76
2024/02/01 05:56:38;;;;;;;4.53;2.85;;;;;;;;;;5075449;28;20299;-76
2024/02/01 05:59:03;;;;;;;7.82;3.42;;;;;;;;;;5075969;28;20044;-76
2024/02/01 06:01:30;;;;;;;7.20;3.25;;;;;;;;;;5074009;28;20036;-76
2024/02/01 06:03:57;;;;;;;10.15;3.78;;;;;;;;;;5072682;28;20035;-76
2024/02/01 06:06:22;;;;;;;5.82;3.90;;;;;;;;;;5077285;28;20029;-77
2024/02/01 06:08:47;;;;;;;6.75;3.78;;;;;;;;;;5072887;28;20051;-76
2024/02/01 06:11:12;;;;;;;8.13;3.78;;;;;;;;;;5069483;28;20032;-76
2024/02/01 06:13:38;;;;;;;7.57;3.88;;;;;;;;;;5080313;28;20115;-76
2024/02/01 06:16:03;;;;;;;5.30;3.10;;;;;;;;;;5074295;28;20473;-76
2024/02/01 06:18:29;;;;;;;7.28;3.50;;;;;;;;;;5076546;28;20102;-76
2024/02/01 06:20:54;;;;;;;8.93;4.70;;;;;;;;;;5078069;28;20078;-76
2024/02/01 06:23:19;;;;;;;7.38;3.95;;;;;;;;;;5070197;28;20025;-77
2024/02/01 06:25:44;;;;;;;6.85;3.63;;;;;;;;;;5072304;28;20024;-76
2024/02/01 06:28:12;;;;;;;6.60;3.67;;;;;;;;;;5075687;28;20032;-76
2024/02/01 06:30:37;;;;;;;11.75;3.80;;;;;;;;;;5069380;28;20039;-76
2024/02/01 06:33:02;;;;;;;6.13;3.20;;;;;;;;;;5070493;28;20111;-76
2024/02/01 06:35:27;;;;;;;8.45;3.60;;;;;;;;;;5072739;28;20028;-76
2024/02/01 06:38:04;;;;;;;6.68;4.35;;;;;;;;;;5069710;28;20028;-76
2024/02/01 06:40:48;;;;;;;9.90;4.22;;;;;;;;;;5069284;28;20086;-76
2024/02/01 06:43:31;;;;;;;9.15;4.20;;;;;;;;;;5072760;28;20032;-76
2024/02/01 06:46:08;;;;;;;8.35;4.20;;;;;;;;;;5069704;28;20058;-75
2024/02/01 06:48:41;;;;;;;8.00;3.80;;;;;;;;;;5070490;28;20070;-76
2024/02/01 06:51:25;;;;;;;7.93;4.55;;;;;;;;;;5076439;28;20378;-75
2024/02/01 06:53:57;;;;;;;7.53;4.38;;;;;;;;;;5078447;28;20119;-76
2024/02/01 06:56:48;;;;;;;7.38;4.18;;;;;;;;;;5073497;28;20123;-75
2024/02/01 06:59:43;;;;;;;7.15;3.88;;;;;;;;;;5077116;28;20117;-77
2024/02/01 07:02:14;;;;;;;7.25;3.78;;;;;;;;;;5074643;28;20435;-75
2024/02/01 07:04:50;;;;;;;9.85;4.95;;;;;;;;;;5072797;28;20043;-75
2024/02/01 07:07:25;;;;;;;8.98;4.22;;;;;;;;;;5080826;28;20060;-76
2024/02/01 07:10:08;;;;;;;9.07;4.72;;;;;;;;;;5081354;28;20533;-76
2024/02/01 07:12:43;;;;;;;7.93;4.90;;;;;;;;;;5075445;28;20028;-76
2024/02/01 07:18:14;;;;;;;7.80;4.68;;;;;;;;;;5079628;28;20412;-76
2024/02/01 07:23:33;;;;;;;8.18;5.10;;;;;;;;;;5076062;28;20027;-76
2024/02/01 07:26:24;;;;;;;9.15;5.82;;;;;;;;;;5075484;28;20048;-77
2024/02/01 07:58:53;;;;;;;7.50;4.65;;;;;;;;;;5072234;28;20078;-76
2024/02/01 08:01:20;;;;;;;8.32;4.78;;;;;;;;;;5071696;28;20040;-76
2024/02/01 08:09:13;;;;;;;6.57;4.63;;;;;;;;;;5078975;28;20021;-75
2024/02/01 08:11:41;;;;;;;8.05;3.95;;;;;;;;;;5072069;28;20032;-76
2024/02/01 08:14:07;;;;;;;9.60;5.82;;;;;;;;;;5077465;28;20020;-76
2024/02/01 08:16:32;;;;;;;6.72;3.95;;;;;;;;;;5071846;28;20598;-76
2024/02/01 08:18:57;;;;;;;6.18;3.85;;;;;;;;;;5070627;28;20520;-76
2024/02/01 08:21:25;;;;;;;6.78;4.10;;;;;;;;;;5073172;28;20032;-75
2024/02/01 08:23:54;;;;;;;6.78;3.72;;;;;;;;;;5076933;28;20020;-76
2024/02/01 08:26:20;;;;;;;7.63;3.90;;;;;;;;;;5072491;28;20040;-77
2024/02/01 08:28:45;;;;;;;8.25;4.43;;;;;;;;;;5071517;28;20032;-76
2024/02/01 08:31:14;;;;;;;8.18;5.20;;;;;;;;;;5071128;28;20052;-76
2024/02/01 08:33:42;;;;;;;5.97;3.60;;;;;;;;;;5072286;28;20107;-76
2024/02/01 08:36:08;;;;;;;6.63;3.72;;;;;;;;;;5078420;28;20036;-76
2024/02/01 08:38:34;;;;;;;6.18;4.00;;;;;;;;;;5071674;28;20032;-76
2024/02/01 08:41:03;;;;;;;6.70;3.58;;;;;;;;;;5070741;28;20128;-76
2024/02/01 08:43:28;;;;;;;6.22;4.50;;;;;;;;;;5069783;28;20056;-76
2024/02/01 08:45:54;;;;;;;7.07;3.90;;;;;;;;;;5072430;28;20087;-77
2024/02/01 08:48:20;;;;;;;7.55;4.53;;;;;;;;;;5071485;28;20036;-76
2024/02/01 08:50:49;;;;;;;6.88;4.22;;;;;;;;;;5078675;28;20115;-77
2024/02/01 08:53:15;;;;;;;5.55;3.15;;;;;;;;;;5076962;28;20040;-76
2024/02/01 08:55:40;;;;;;;8.57;4.07;;;;;;;;;;5073344;28;20447;-77
2024/02/01 08:58:09;;;;;;;7.45;4.80;;;;;;;;;;5078574;28;20239;-76
2024/02/01 09:00:34;;;;;;;4.10;2.80;;;;;;;;;;5071236;28;20060;-76
2024/02/01 09:03:03;;;;;;;6.18;3.45;;;;;;;;;;5072467;28;20036;-76
2024/02/01 09:05:40;;;;;;;5.80;3.63;;;;;;;;;;5073548;28;20638;-77
2024/02/01 09:08:12;;;;;;;6.57;3.88;;;;;;;;;;5079267;28;20054;-76
2024/02/01 09:10:37;;;;;;;6.53;3.65;;;;;;;;;;5076118;28;20037;-76
2024/02/01 09:13:02;;;;;;;4.32;2.75;;;;;;;;;;5075228;28;20024;-77
2024/02/01 09:15:30;;;;;;;5.28;3.25;;;;;;;;;;5078903;28;20024;-76
2024/02/01 09:17:56;;;;;;;5.68;3.10;;;;;;;;;;5072487;28;20064;-76
2024/02/01 09:20:22;;;;;;;5.55;2.80;;;;;;;;;;5070389;28;20531;-76
2024/02/01 09:22:50;;;;;;;5.03;2.83;;;;;;;;;;5070375;28;20047;-76
2024/02/01 09:25:20;;;;;;;6.32;3.30;;;;;;;;;;5072060;28;20139;-76
2024/02/01 09:27:45;;;;;;;5.65;2.90;;;;;;;;;;5076591;28;20115;-76
2024/02/01 09:30:11;;;;;;;4.75;2.97;;;;;;;;;;5071743;28;20020;-76
2024/02/01 09:32:37;;;;;;;5.60;3.05;;;;;;;;;;5072725;28;20051;-78
2024/02/01 09:35:03;;;;;;;4.50;2.60;;;;;;;;;;5070430;28;20060;-78
2024/02/01 09:37:29;;;;;;;5.90;2.70;;;;;;;;;;5070330;28;20792;-78
2024/02/01 09:40:00;;;;;;;4.55;2.47;;;;;;;;;;5070734;28;20068;-77
2024/02/01 09:42:25;;;;;;;4.28;2.50;;;;;;;;;;5071103;28;20028;-77
2024/02/01 09:44:50;;;;;;;4.03;2.22;;;;;;;;;;5071731;28;20033;-78
2024/02/01 09:47:16;;;;;;;5.25;2.55;;;;;;;;;;5070102;28;20025;-77
2024/02/01 09:49:42;;;;;;;4.60;2.60;;;;;;;;;;5074702;28;20035;-75
2024/02/01 09:52:09;;;;;;;4.90;2.63;;;;;;;;;;5080786;28;20111;-77
2024/02/01 09:54:35;;;;;;;4.13;2.72;;;;;;;;;;5068728;28;20107;-77
2024/02/01 09:57:00;;;;;;;4.88;2.60;;;;;;;;;;5070706;28;20183;-77
2024/02/01 09:59:26;;;;;;;5.30;2.60;;;;;;;;;;5070651;28;20031;-77
2024/02/01 10:01:55;;;;;;;5.57;2.90;;;;;;;;;;5072257;28;20039;-76
2024/02/01 10:04:20;;;;;;;4.55;2.70;;;;;;;;;;5074621;28;20029;-77
2024/02/01 10:06:46;;;;;;;6.32;2.38;;;;;;;;;;5069575;28;20126;-77
2024/02/01 10:09:25;;;;;;;4.18;2.60;;;;;;;;;;5071283;28;20036;-77
2024/02/01 10:11:50;;;;;;;4.90;2.63;;;;;;;;;;5074257;28;20036;-77
2024/02/01 10:14:16;;;;;;;6.75;2.95;;;;;;;;;;5074362;28;20107;-77
2024/02/01 10:16:41;;;;;;;7.68;3.53;;;;;;;;;;5070811;28;20028;-77
2024/02/01 10:19:09;;;;;;;5.40;2.50;;;;;;;;;;5078445;28;20024;-77
2024/02/01 10:21:35;;;;;;;5.82;2.45;;;;;;;;;;5075022;28;20071;-76
2024/02/01 10:24:04;;;;;;;5.57;2.92;;;;;;;;;;5075533;28;20036;-77
2024/02/01 10:26:30;;;;;;;4.68;2.60;;;;;;;;;;5084613;28;20115;-77
2024/02/01 10:28:56;;;;;;;6.53;3.00;;;;;;;;;;5080691;28;20052;-77
2024/02/01 10:31:21;;;;;;;7.30;3.00;;;;;;;;;;5078900;28;20088;-77
2024/02/01 10:33:48;;;;;;;7.35;3.17;;;;;;;;;;5076357;28;20159;-78
2024/02/01 10:36:20;;;;;;;8.00;3.75;;;;;;;;;;5081551;28;20047;-78
2024/02/01 10:38:47;;;;;;;6.55;2.53;;;;;;;;;;5081067;28;20408;-77
2024/02/01 10:41:13;;;;;;;5.75;2.65;;;;;;;;;;5076657;28;20040;-77
2024/02/01 10:43:41;;;;;;;7.15;2.70;;;;;;;;;;5075343;28;20031;-78
2024/02/01 10:46:07;;;;;;;8.15;3.13;;;;;;;;;;5082892;28;20071;-77
2024/02/01 10:48:38;;;;;;;7.50;3.33;;;;;;;;;;5078547;28;20024;-76
2024/02/01 10:51:09;;;;;;;5.30;2.90;;;;;;;;;;5080084;28;20420;-77
2024/02/01 10:53:38;;;;;;;4.50;2.47;;;;;;;;;;5075642;28;20024;-77
2024/02/01 10:56:04;;;;;;;5.40;3.15;;;;;;;;;;5081589;28;20063;-78
2024/02/01 10:58:29;;;;;;;6.25;2.65;;;;;;;;;;5081320;28;20039;-77
2024/02/01 11:00:54;;;;;;;8.20;2.47;;;;;;;;;;5080088;28;20552;-76
2024/02/01 11:03:24;;;;;;;7.57;2.85;;;;;;;;;;5086182;28;20487;-78
2024/02/01 11:05:56;;;;;;;4.80;1.92;;;;;;;;;;5051992;28;20028;-78
2024/02/01 11:08:21;;;;;;;7.80;2.50;;;;;;;;;;5075196;28;20116;-78
2024/02/01 11:10:53;;;;;;;5.30;1.90;;;;;;;;;;5079303;28;20060;-77
2024/02/01 11:13:28;;;;;;;6.47;2.10;;;;;;;;;;5080336;28;20270;-77
2024/02/01 11:15:56;;;;;;;4.28;1.67;;;;;;;;;;5087183;28;20119;-78
2024/02/01 11:18:21;;;;;;;5.43;2.08;;;;;;;;;;5074864;28;20059;-78
2024/02/01 11:20:53;;;;;;;4.53;1.80;;;;;;;;;;5074206;28;20058;-76
2024/02/01 11:23:18;;;;;;;6.45;1.70;;;;;;;;;;5074602;28;20108;-78
2024/02/01 11:25:43;;;;;;;5.20;1.63;;;;;;;;;;5083592;28;20063;-77
2024/02/01 11:28:11;;;;;;;4.63;1.38;;;;;;;;;;5087677;28;20142;-78
2024/02/01 11:30:37;;;;;;;5.55;1.40;;;;;;;;;;5078214;28;20027;-79
2024/02/01 11:33:02;;;;;;;4.60;1.13;;;;;;;;;;5079622;28;20045;-78
2024/02/01 11:35:27;;;;;;;6.40;1.25;;;;;;;;;;5088326;28;20064;-77
2024/02/01 11:38:04;;;;;;;6.00;1.30;;;;;;;;;;5076149;28;20113;-77
2024/02/01 11:40:30;;;;;;;5.22;1.50;;;;;;;;;;5074047;28;20097;-78
2024/02/01 11:42:58;;;;;;;9.05;1.92;;;;;;;;;;5074191;28;20481;-78
2024/02/01 11:45:24;;;;;;;7.82;2.35;;;;;;;;;;5081739;28;20051;-78
2024/02/01 11:47:53;;;;;;;4.97;1.45;;;;;;;;;;5075219;28;20032;-78
2024/02/01 11:50:18;;;;;;;5.45;1.25;;;;;;;;;;5075114;28;20028;-78
2024/02/01 11:52:47;;;;;;;3.55;1.00;;;;;;;;;;5075826;28;20029;-78
2024/02/01 11:55:14;;;;;;;10.55;2.25;;;;;;;;;;5084070;28;20370;-78
2024/02/01 11:57:47;;;;;;;6.32;1.00;;;;;;;;;;5074696;28;20047;-78
2024/02/01 12:00:16;;;;;;;5.00;1.30;;;;;;;;;;5078717;28;20020;-80
2024/02/01 12:02:45;;;;;;;8.48;1.50;;;;;;;;;;5075963;28;20036;-79
2024/02/01 12:05:11;;;;;;;6.53;1.23;;;;;;;;;;5087370;28;20053;-79
2024/02/01 12:07:36;;;;;;;4.55;1.02;;;;;;;;;;5080700;28;20033;-79
2024/02/01 12:10:10;;;;;;;5.82;1.48;;;;;;;;;;5074172;28;20404;-79
2024/02/01 12:12:35;;;;;;;4.90;1.10;;;;;;;;;;5077401;28;20025;-79
2024/02/01 12:15:01;;;;;;;6.07;0.98;;;;;;;;;;5087012;28;20480;-79
2024/02/01 12:17:27;;;;;;;5.03;1.20;;;;;;;;;;5074138;28;20532;-79
2024/02/01 12:19:52;;;;;;;10.07;1.30;;;;;;;;;;5073735;28;20033;-79
2024/02/01 12:22:20;;;;;;;8.70;1.92;;;;;;;;;;5080375;28;20035;-78
2024/02/01 12:24:46;;;;;;;6.68;1.40;;;;;;;;;;5081983;28;20118;-79
2024/02/01 12:27:11;;;;;;;6.05;1.48;;;;;;;;;;5081334;28;20051;-79
2024/02/01 12:29:36;;;;;;;7.13;1.88;;;;;;;;;;5074418;28;20031;-79
2024/02/01 12:32:03;;;;;;;6.93;1.33;;;;;;;;;;5082007;28;20031;-79
2024/02/01 12:34:28;;;;;;;5.40;1.90;;;;;;;;;;5084843;28;20028;-79
2024/02/01 12:36:54;;;;;;;8.48;2.08;;;;;;;;;;5079013;28;20025;-78
2024/02/01 12:39:20;;;;;;;9.68;1.50;;;;;;;;;;5077913;28;20036;-79
2024/02/01 12:41:45;;;;;;;6.80;1.23;;;;;;;;;;5077838;28;20057;-77
2024/02/01 12:44:13;;;;;;;6.35;1.20;;;;;;;;;;5085799;28;20040;-79
2024/02/01 12:46:38;;;;;;;5.07;0.90;;;;;;;;;;5078351;28;20021;-79
2024/02/01 12:49:04;;;;;;;6.38;1.15;;;;;;;;;;5078837;28;20035;-79
2024/02/01 12:51:29;;;;;;;8.25;1.77;;;;;;;;;;5078846;28;20046;-78
2024/02/01 12:53:58;;;;;;;6.25;1.65;;;;;;;;;;5080688;28;20109;-79
2024/02/01 12:56:23;;;;;;;8.27;1.60;;;;;;;;;;5080427;28;20652;-79
2024/02/01 12:58:49;;;;;;;6.32;1.27;;;;;;;;;;5073150;28;20111;-79
2024/02/01 13:01:15;;;;;;;7.05;0.98;;;;;;;;;;5071423;28;20060;-76
2024/02/01 13:03:40;;;;;;;5.82;1.33;;;;;;;;;;5080925;28;20058;-79
2024/02/01 13:06:05;;;;;;;7.68;1.70;;;;;;;;;;5078733;28;20024;-79
2024/02/01 13:08:39;;;;;;;7.85;1.98;;;;;;;;;;5071482;28;20048;-79
2024/02/01 13:11:04;;;;;;;4.70;1.20;;;;;;;;;;5079382;28;20415;-79
2024/02/01 13:13:30;;;;;;;6.93;1.60;;;;;;;;;;5071686;28;20119;-79
2024/02/01 13:15:55;;;;;;;9.85;1.38;;;;;;;;;;5079008;28;20489;-79
2024/02/01 13:18:21;;;;;;;9.45;1.70;;;;;;;;;;5073460;28;20032;-80
2024/02/01 13:20:48;;;;;;;7.35;1.55;;;;;;;;;;5072917;28;20040;-80
2024/02/01 13:23:14;;;;;;;5.55;1.80;;;;;;;;;;5081835;28;20341;-79
2024/02/01 13:25:39;;;;;;;11.00;1.77;;;;;;;;;;5083828;28;20028;-79
2024/02/01 13:28:08;;;;;;;10.23;1.58;;;;;;;;;;5075118;28;20178;-79
2024/02/01 13:30:33;;;;;;;7.82;1.27;;;;;;;;;;5080921;28;20066;-79
2024/02/01 13:32:58;;;;;;;7.97;1.67;;;;;;;;;;5080525;28;20111;-79
2024/02/01 13:35:24;;;;;;;6.85;1.40;;;;;;;;;;5081892;28;20503;-79
2024/02/01 13:37:51;;;;;;;7.93;1.52;;;;;;;;;;5078436;28;20036;-79
2024/02/01 13:40:16;;;;;;;6.05;1.48;;;;;;;;;;5072862;28;20067;-79
2024/02/01 13:42:42;;;;;;;8.77;2.40;;;;;;;;;;5072470;28;20060;-79
2024/02/01 13:45:07;;;;;;;9.50;2.55;;;;;;;;;;5076606;28;20488;-79
2024/02/01 13:47:32;;;;;;;8.30;1.60;;;;;;;;;;5072100;28;20070;-79
2024/02/01 13:49:58;;;;;;;6.45;1.30;;;;;;;;;;5079184;28;20056;-81
2024/02/01 13:52:23;;;;;;;5.07;1.42;;;;;;;;;;5080691;28;20103;-80
2024/02/01 13:54:48;;;;;;;5.15;1.33;;;;;;;;;;5078717;28;20032;-79
2024/02/01 13:57:13;;;;;;;6.90;1.75;;;;;;;;;;5073110;28;20032;-79
2024/02/01 13:59:38;;;;;;;7.75;1.77;;;;;;;;;;5075961;28;20068;-79
2024/02/01 14:02:04;;;;;;;9.70;1.90;;;;;;;;;;5078857;28;20063;-79
2024/02/01 14:04:29;;;;;;;8.48;1.25;;;;;;;;;;5074572;28;20274;-79
2024/02/01 14:06:54;;;;;;;9.75;1.75;;;;;;;;;;5074590;28;20032;-79
2024/02/01 14:09:22;;;;;;;11.05;2.30;;;;;;;;;;5072086;28;20077;-80
2024/02/01 14:11:47;;;;;;;11.68;2.30;;;;;;;;;;5071277;28;20121;-79
2024/02/01 14:14:12;;;;;;;7.10;1.55;;;;;;;;;;5076576;28;20028;-79
2024/02/01 14:16:38;;;;;;;12.70;3.15;;;;;;;;;;5079089;28;20390;-80
2024/02/01 14:19:03;;;;;;;12.05;2.65;;;;;;;;;;5071069;28;20039;-80
2024/02/01 14:21:29;;;;;;;11.45;2.70;;;;;;;;;;5072022;28;20096;-81
2024/02/01 14:23:56;;;;;;;16.80;4.05;;;;;;;;;;5077603;28;20054;-80
2024/02/01 14:26:22;;;;;;;9.45;2.60;;;;;;;;;;5076976;28;20031;-80
2024/02/01 14:28:47;;;;;;;7.78;2.25;;;;;;;;;;5067234;28;20032;-81
2024/02/01 14:31:12;;;;;;;8.15;1.70;;;;;;;;;;5072148;28;20047;-80
2024/02/01 14:33:37;;;;;;;16.42;4.50;;;;;;;;;;5072595;28;20032;-80
2024/02/01 14:36:03;;;;;;;10.23;2.47;;;;;;;;;;5077585;28;20033;-80
2024/02/01 14:38:28;;;;;;;7.75;1.70;;;;;;;;;;5077861;28;20036;-80
2024/02/01 14:40:53;;;;;;;9.27;3.40;;;;;;;;;;5072110;28;20043;-80
2024/02/01 14:43:18;;;;;;;8.15;1.63;;;;;;;;;;5072704;28;20029;-80
2024/02/01 14:45:43;;;;;;;8.05;2.05;;;;;;;;;;5077462;28;20028;-79
2024/02/01 14:48:09;;;;;;;7.53;1.70;;;;;;;;;;5071746;28;20154;-80
2024/02/01 14:50:34;;;;;;;11.27;2.05;;;;;;;;;;5071818;28;20020;-80
2024/02/01 14:52:59;;;;;;;12.07;2.70;;;;;;;;;;5073103;28;20060;-80
2024/02/01 14:55:24;;;;;;;9.82;2.53;;;;;;;;;;5077435;28;20270;-80
2024/02/01 14:57:49;;;;;;;11.52;2.78;;;;;;;;;;5072404;28;20094;-80
2024/02/01 15:00:17;;;;;;;9.95;2.63;;;;;;;;;;5073263;28;20028;-80
2024/02/01 15:02:43;;;;;;;7.53;1.98;;;;;;;;;;5077708;28;20044;-80
2024/02/01 15:05:13;;;;;;;11.38;3.15;;;;;;;;;;5077996;28;20067;-80
2024/02/01 15:07:38;;;;;;;11.50;2.33;;;;;;;;;;5074768;28;20054;-80
2024/02/01 15:10:03;;;;;;;9.85;2.10;;;;;;;;;;5079626;28;20033;-79
2024/02/01 15:12:29;;;;;;;9.05;2.15;;;;;;;;;;5075529;28;20097;-79
2024/02/01 15:14:54;;;;;;;6.93;2.15;;;;;;;;;;5079092;28;20040;-79
2024/02/01 15:17:19;;;;;;;15.65;2.60;;;;;;;;;;5080624;28;20032;-78
2024/02/01 15:19:44;;;;;;;8.18;1.90;;;;;;;;;;5074228;28;20043;-78
2024/02/01 15:22:10;;;;;;;6.43;1.92;;;;;;;;;;5073657;28;20033;-79